Time;durP1;ratioP1;P1;durP2;ratioP2;P2;SDS_P1;SDS_P2;PMS_P1;PMS_P2;Temp;Humidity;BMP_temperature;BMP_pressure;BME280_temperature;BME280_humidity;BME280_pressure;Samples;Min_cycle;Max_cycle;Signal;HPM_P1;HPM_P2
2023/04/16 00:01:23;;;;;;;8.20;5.70;;;;;;;8.92;72.11;101155.90;107884;1249;108563;-61
2023/04/16 00:03:52;;;;;;;11.70;5.50;;;;;;;8.90;72.07;101158.95;107832;1250;97855;-61
2023/04/16 00:06:21;;;;;;;19.10;5.80;;;;;;;8.88;71.97;101163.95;107681;1250;97835;-61
2023/04/16 00:08:50;;;;;;;15.80;5.30;;;;;;;8.87;71.97;101162.60;107704;1250;111856;-60
2023/04/16 00:11:19;;;;;;;9.00;5.80;;;;;;;8.87;72.08;101165.98;107628;1250;110502;-60
2023/04/16 00:13:47;;;;;;;13.50;5.60;;;;;;;8.85;71.91;101165.57;107739;1251;108176;-61
2023/04/16 00:16:16;;;;;;;8.40;5.60;;;;;;;8.81;71.86;101168.25;107686;1251;98283;-60
2023/04/16 00:18:45;;;;;;;13.50;5.60;;;;;;;8.76;71.69;101168.36;107770;1255;98341;-59
2023/04/16 00:21:14;;;;;;;10.90;6.20;;;;;;;8.72;71.56;101176.34;107679;1250;111959;-59
2023/04/16 00:23:42;;;;;;;16.10;6.10;;;;;;;8.67;71.47;101178.21;107615;1250;109186;-61
2023/04/16 00:26:11;;;;;;;17.20;6.40;;;;;;;8.65;71.38;101181.75;107672;1250;108819;-61
2023/04/16 00:28:40;;;;;;;12.50;6.00;;;;;;;8.63;71.59;101182.98;107672;1250;97825;-60
2023/04/16 00:31:08;;;;;;;9.40;5.60;;;;;;;8.58;71.53;101185.61;107941;1248;97710;-63
2023/04/16 00:33:37;;;;;;;9.20;5.70;;;;;;;8.56;71.39;101183.79;107979;1248;111768;-60
2023/04/16 00:36:06;;;;;;;14.70;5.10;;;;;;;8.55;71.53;101185.71;107798;1248;109823;-60
2023/04/16 00:38:34;;;;;;;12.60;5.60;;;;;;;8.53;71.47;101187.46;107968;1248;107607;-60
2023/04/16 00:41:05;;;;;;;10.20;5.80;;;;;;;8.52;71.37;101181.98;107822;1248;97903;-61
2023/04/16 00:43:33;;;;;;;12.10;5.20;;;;;;;8.52;71.39;101183.95;107979;1248;97851;-62
2023/04/16 00:46:05;;;;;;;11.50;5.80;;;;;;;8.52;71.44;101186.45;107818;1249;111803;-61
2023/04/16 00:48:36;;;;;;;9.60;6.80;;;;;;;8.53;71.49;101191.73;107938;1249;109313;-61
2023/04/16 00:51:06;;;;;;;18.50;7.00;;;;;;;8.53;71.47;101189.05;107626;1249;109494;-60
2023/04/16 00:53:34;;;;;;;14.20;6.70;;;;;;;8.54;71.53;101188.23;107926;1248;97810;-60
2023/04/16 00:56:05;;;;;;;13.20;5.90;;;;;;;8.55;71.63;101187.84;107813;1250;98338;-60
2023/04/16 00:58:34;;;;;;;11.40;6.20;;;;;;;8.58;71.74;101192.96;107614;1251;112032;-60
2023/04/16 01:01:03;;;;;;;8.90;5.20;;;;;;;8.60;72.12;101192.45;107726;1250;109990;-61
2023/04/16 01:03:47;;;;;;;7.40;4.80;;;;;;;8.64;72.57;101188.95;107617;1250;108653;-60
2023/04/16 01:06:17;;;;;;;13.10;5.20;;;;;;;8.69;72.85;101187.36;107629;1250;97823;-59
2023/04/16 01:08:46;;;;;;;7.90;5.20;;;;;;;8.74;72.72;101187.85;107786;1250;97729;-61
2023/04/16 01:11:15;;;;;;;15.50;4.90;;;;;;;8.76;72.79;101188.75;107603;1250;110755;-61
2023/04/16 01:13:44;;;;;;;15.80;5.60;;;;;;;8.78;72.76;101190.25;107688;1248;108393;-61
2023/04/16 01:16:13;;;;;;;7.70;4.30;;;;;;;8.79;72.79;101192.14;107703;1251;108260;-61
2023/04/16 01:18:42;;;;;;;13.90;5.50;;;;;;;8.83;73.23;101194.50;107695;1251;97827;-60
2023/04/16 01:21:10;;;;;;;6.60;4.50;;;;;;;8.89;73.43;101193.88;107561;1250;97911;-60
2023/04/16 01:23:38;;;;;;;8.10;5.10;;;;;;;8.94;73.34;101193.19;107601;1250;111599;-59
2023/04/16 01:26:07;;;;;;;12.40;6.00;;;;;;;9.00;73.45;101189.30;107645;1250;109596;-61
2023/04/16 01:28:36;;;;;;;19.70;9.20;;;;;;;9.09;73.59;101184.00;107734;1251;108163;-60
2023/04/16 01:31:04;;;;;;;12.40;5.50;;;;;;;9.16;73.48;101184.35;107867;1248;97847;-61
2023/04/16 01:33:44;;;;;;;9.30;5.50;;;;;;;9.23;73.51;101187.79;107902;1248;98444;-59
2023/04/16 01:36:12;;;;;;;10.70;5.80;;;;;;;9.29;73.56;101186.46;107963;1248;111972;-60
2023/04/16 01:38:41;;;;;;;10.30;5.40;;;;;;;9.32;73.49;101186.89;107761;1248;110114;-61
2023/04/16 01:41:10;;;;;;;13.40;6.00;;;;;;;9.36;73.45;101188.06;107675;1251;108032;-61
2023/04/16 01:43:38;;;;;;;14.90;5.10;;;;;;;9.37;73.51;101188.48;107647;1251;97803;-61
2023/04/16 01:46:19;;;;;;;12.30;5.00;;;;;;;9.39;73.35;101183.88;107720;1250;97873;-59
2023/04/16 01:48:48;;;;;;;8.60;5.40;;;;;;;9.42;73.34;101182.23;107714;1250;112043;-61
2023/04/16 01:51:16;;;;;;;10.40;5.70;;;;;;;9.43;73.13;101185.55;107649;1250;109824;-60
2023/04/16 01:53:45;;;;;;;12.50;4.90;;;;;;;9.45;73.22;101183.10;107671;1250;107808;-61
2023/04/16 01:56:13;;;;;;;11.10;5.10;;;;;;;9.47;73.25;101181.84;107900;1253;97788;-61
2023/04/16 01:58:41;;;;;;;11.80;5.40;;;;;;;9.48;72.91;101184.28;107631;1248;98342;-60
2023/04/16 02:01:10;;;;;;;8.60;5.20;;;;;;;9.48;73.11;101186.55;107927;1249;111706;-60
2023/04/16 02:03:40;;;;;;;11.20;5.50;;;;;;;9.49;73.06;101183.48;107943;1248;109769;-59
2023/04/16 02:06:09;;;;;;;12.10;6.00;;;;;;;9.49;73.12;101186.02;107704;1251;108639;-59
2023/04/16 02:08:37;;;;;;;15.90;5.40;;;;;;;9.49;73.19;101187.92;107701;1250;98506;-60
2023/04/16 02:11:06;;;;;;;12.80;5.90;;;;;;;9.49;73.19;101187.58;107701;1250;97704;-60
2023/04/16 02:13:35;;;;;;;11.10;5.90;;;;;;;9.49;73.19;101190.62;107708;1250;112291;-61
2023/04/16 02:16:06;;;;;;;14.00;5.60;;;;;;;9.50;73.20;101192.15;107638;1251;109979;-60
2023/04/16 02:18:49;;;;;;;15.20;6.20;;;;;;;9.50;73.10;101190.95;107685;1255;108112;-61
2023/04/16 02:21:19;;;;;;;14.90;6.30;;;;;;;9.47;73.02;101195.80;107711;1250;97835;-61
2023/04/16 02:23:50;;;;;;;12.50;6.30;;;;;;;9.44;72.84;101197.15;107724;1250;97801;-60
2023/04/16 02:26:24;;;;;;;11.20;6.30;;;;;;;9.42;72.88;101193.86;107660;1250;112127;-62
2023/04/16 02:28:54;;;;;;;15.60;6.30;;;;;;;9.38;73.03;101194.11;107722;1250;109717;-61
2023/04/16 02:31:27;;;;;;;12.90;7.20;;;;;;;9.37;73.03;101195.16;107904;1251;108151;-61
2023/04/16 02:33:57;;;;;;;13.80;7.00;;;;;;;9.33;72.97;101198.98;107622;1248;97876;-61
2023/04/16 02:36:26;;;;;;;16.10;6.70;;;;;;;9.24;72.88;101195.76;107706;1251;97823;-60
2023/04/16 02:38:55;;;;;;;12.90;6.60;;;;;;;9.19;73.10;101194.88;107724;1251;111314;-60
2023/04/16 02:41:25;;;;;;;15.80;7.00;;;;;;;9.11;73.30;101197.45;107647;1250;109935;-63
2023/04/16 02:43:54;;;;;;;16.50;7.90;;;;;;;9.03;73.55;101198.42;107661;1253;107653;-60
2023/04/16 02:46:23;;;;;;;16.00;7.60;;;;;;;9.00;73.63;101201.71;107659;1250;97836;-61
2023/04/16 02:48:52;;;;;;;16.90;7.80;;;;;;;8.98;73.66;101200.41;107758;1255;97843;-61
2023/04/16 02:51:20;;;;;;;16.70;7.30;;;;;;;8.97;73.82;101203.17;107675;1248;111814;-61
2023/04/16 02:53:49;;;;;;;12.30;7.60;;;;;;;8.95;74.00;101203.64;107935;1249;109506;-59
2023/04/16 02:56:17;;;;;;;14.00;7.20;;;;;;;8.89;74.05;101203.76;107903;1248;108263;-60
2023/04/16 02:58:45;;;;;;;18.90;9.10;;;;;;;8.80;74.06;101206.23;107697;1249;97707;-60
2023/04/16 03:01:14;;;;;;;21.80;8.90;;;;;;;8.71;74.13;101204.56;107767;1248;97707;-61
2023/04/16 03:03:43;;;;;;;13.50;8.50;;;;;;;8.68;74.33;101203.86;107711;1248;111544;-61
2023/04/16 03:06:11;;;;;;;19.10;9.20;;;;;;;8.68;74.57;101209.96;107929;1248;109482;-60
2023/04/16 03:08:40;;;;;;;19.90;8.00;;;;;;;8.66;74.67;101203.45;107940;1249;108093;-61
2023/04/16 03:11:08;;;;;;;16.70;8.40;;;;;;;8.62;74.77;101211.65;107604;1248;97614;-60
2023/04/16 03:13:37;;;;;;;19.00;9.20;;;;;;;8.58;74.85;101214.77;107683;1250;97838;-60
2023/04/16 03:16:06;;;;;;;21.30;10.30;;;;;;;8.55;74.90;101215.58;107718;1251;111902;-61
2023/04/16 03:18:35;;;;;;;17.20;8.30;;;;;;;8.49;74.84;101216.84;107955;1248;109961;-60
2023/04/16 03:21:04;;;;;;;11.60;7.80;;;;;;;8.43;74.80;101217.94;107917;1248;108675;-60
2023/04/16 03:23:33;;;;;;;16.60;8.30;;;;;;;8.38;74.97;101217.05;107902;1248;97809;-60
2023/04/16 03:26:01;;;;;;;16.00;8.70;;;;;;;8.38;75.17;101215.46;107917;1248;98374;-61
2023/04/16 03:28:30;;;;;;;16.30;8.60;;;;;;;8.38;75.55;101215.86;107907;1248;110923;-64
2023/04/16 03:30:58;;;;;;;14.90;8.60;;;;;;;8.37;75.75;101215.51;107717;1250;109848;-62
2023/04/16 03:33:27;;;;;;;15.30;8.00;;;;;;;8.34;75.63;101216.14;107589;1249;108806;-61
2023/04/16 03:35:57;;;;;;;16.20;9.10;;;;;;;8.31;75.64;101222.90;107619;1250;97878;-60
2023/04/16 03:38:26;;;;;;;19.50;8.80;;;;;;;8.31;75.75;101228.46;107792;1250;97726;-60
2023/04/16 03:40:56;;;;;;;12.60;8.20;;;;;;;8.33;75.85;101228.19;107624;1250;111848;-60
2023/04/16 03:43:26;;;;;;;13.90;7.90;;;;;;;8.33;75.74;101229.79;107630;1250;108110;-61
2023/04/16 03:45:55;;;;;;;17.00;8.70;;;;;;;8.34;75.94;101232.91;107629;1250;108333;-59
2023/04/16 03:48:23;;;;;;;16.00;9.00;;;;;;;8.34;76.28;101235.58;107617;1250;97827;-60
2023/04/16 03:50:53;;;;;;;24.80;8.40;;;;;;;8.36;76.67;101234.77;107635;1250;97814;-60
2023/04/16 03:53:21;;;;;;;14.40;8.80;;;;;;;8.37;76.78;101233.26;107607;1250;111174;-60
2023/04/16 03:55:50;;;;;;;14.00;8.30;;;;;;;8.41;76.93;101239.96;107619;1250;109893;-61
2023/04/16 03:58:19;;;;;;;16.90;8.80;;;;;;;8.43;77.28;101244.43;107671;1250;108846;-63
2023/04/16 04:00:48;;;;;;;23.30;9.80;;;;;;;8.45;77.51;101244.23;107707;1251;97819;-61
2023/04/16 04:03:17;;;;;;;18.10;9.60;;;;;;;8.47;77.81;101241.10;107750;1251;97827;-60
2023/04/16 04:05:48;;;;;;;15.40;8.30;;;;;;;8.52;77.70;101242.73;107654;1250;111759;-61
2023/04/16 04:08:22;;;;;;;16.50;8.50;;;;;;;8.59;78.05;101248.86;107580;1250;108882;-61
2023/04/16 04:10:51;;;;;;;12.90;8.90;;;;;;;8.64;77.89;101244.35;107551;1250;108285;-60
2023/04/16 04:13:21;;;;;;;19.20;7.90;;;;;;;8.70;77.88;101243.23;107565;1250;98893;-60
2023/04/16 04:15:50;;;;;;;20.20;8.70;;;;;;;8.79;77.95;101243.70;107601;1250;97714;-62
2023/04/16 04:18:20;;;;;;;16.50;8.40;;;;;;;8.87;77.68;101244.16;107607;1251;111803;-61
2023/04/16 04:20:48;;;;;;;15.30;8.50;;;;;;;8.94;77.50;101246.34;107765;1248;110491;-59
2023/04/16 04:23:19;;;;;;;38.00;9.30;;;;;;;9.02;77.67;101244.66;107883;1248;107905;-59
2023/04/16 04:25:47;;;;;;;27.80;8.50;;;;;;;9.12;77.66;101247.30;107881;1248;97826;-61
2023/04/16 04:28:16;;;;;;;14.80;7.20;;;;;;;9.21;77.79;101246.45;107929;1249;97926;-60
2023/04/16 04:30:44;;;;;;;17.10;8.00;;;;;;;9.27;78.95;101247.45;107713;1248;112209;-61
2023/04/16 04:33:13;;;;;;;16.70;8.10;;;;;;;9.28;78.50;101247.91;107956;1248;108826;-61
2023/04/16 04:35:42;;;;;;;11.60;7.70;;;;;;;9.30;78.97;101247.75;107792;1250;107289;-60
2023/04/16 04:38:10;;;;;;;15.80;8.60;;;;;;;9.34;78.85;101246.02;107703;1250;97825;-61
2023/04/16 04:40:42;;;;;;;14.00;8.60;;;;;;;9.38;78.92;101248.76;107611;1250;97900;-61
2023/04/16 04:43:11;;;;;;;13.20;8.30;;;;;;;9.48;79.14;101249.79;107547;1250;113023;-60
2023/04/16 04:45:40;;;;;;;17.90;8.70;;;;;;;9.56;79.23;101252.74;107686;1250;109454;-61
2023/04/16 04:48:08;;;;;;;16.90;8.40;;;;;;;9.64;79.31;101254.85;107561;1249;107829;-60
2023/04/16 04:50:36;;;;;;;15.40;9.00;;;;;;;9.70;79.63;101256.91;107570;1250;97854;-61
2023/04/16 04:53:08;;;;;;;12.10;8.80;;;;;;;9.77;79.57;101256.92;107627;1250;97810;-59
2023/04/16 04:55:38;;;;;;;15.40;8.80;;;;;;;9.85;79.41;101259.85;107577;1250;112277;-61
2023/04/16 04:58:07;;;;;;;16.40;8.60;;;;;;;9.91;79.21;101259.55;107667;1250;111965;-61
2023/04/16 05:00:36;;;;;;;19.40;8.90;;;;;;;9.97;79.01;101265.02;107687;1250;107304;-60
2023/04/16 05:03:10;;;;;;;16.20;9.90;;;;;;;10.04;78.79;101268.05;107504;1250;97844;-63
2023/04/16 05:05:39;;;;;;;16.30;9.30;;;;;;;10.11;78.65;101271.48;107790;1248;97726;-61
2023/04/16 05:08:08;;;;;;;16.10;9.70;;;;;;;10.20;78.84;101272.40;107944;1248;111362;-62
2023/04/16 05:10:36;;;;;;;15.90;10.10;;;;;;;10.30;78.81;101272.47;107951;1248;111052;-61
2023/04/16 05:13:05;;;;;;;22.20;9.80;;;;;;;10.41;78.69;101267.38;107735;1250;109178;-60
2023/04/16 05:15:34;;;;;;;17.80;10.90;;;;;;;10.49;78.63;101265.42;107692;1249;97825;-60
2023/04/16 05:18:02;;;;;;;25.20;11.10;;;;;;;10.58;78.49;101267.98;107874;1248;98349;-61
2023/04/16 05:20:31;;;;;;;25.30;11.10;;;;;;;10.60;78.27;101268.84;107599;1251;111886;-60
2023/04/16 05:22:59;;;;;;;21.70;10.90;;;;;;;10.63;78.22;101262.70;107516;1250;108722;-60
2023/04/16 05:25:28;;;;;;;18.80;10.00;;;;;;;10.68;78.33;101263.02;107690;1249;108773;-63
2023/04/16 05:27:56;;;;;;;16.60;10.60;;;;;;;10.75;78.48;101262.12;107429;1250;97935;-60
2023/04/16 05:30:25;;;;;;;17.30;10.70;;;;;;;10.84;78.54;101261.61;107703;1248;98478;-61
2023/04/16 05:32:53;;;;;;;20.40;11.40;;;;;;;10.89;78.66;101254.52;107945;1248;111917;-60
2023/04/16 05:35:22;;;;;;;26.60;11.90;;;;;;;10.98;78.50;101261.66;107893;1248;109667;-61
2023/04/16 05:37:50;;;;;;;20.50;11.10;;;;;;;11.08;78.61;101264.80;107629;1250;107702;-60
2023/04/16 05:40:19;;;;;;;15.40;9.70;;;;;;;11.16;78.40;101269.37;107587;1250;97925;-61
2023/04/16 05:42:48;;;;;;;15.10;10.30;;;;;;;11.20;78.19;101263.40;107686;1251;97819;-61
2023/04/16 05:45:16;;;;;;;21.30;10.60;;;;;;;11.29;78.19;101262.73;107615;1250;110279;-61
2023/04/16 05:47:46;;;;;;;17.30;11.10;;;;;;;11.38;78.18;101266.62;107639;1251;109909;-61
2023/04/16 05:50:15;;;;;;;27.70;13.50;;;;;;;11.44;78.11;101268.46;107649;1251;108452;-60
2023/04/16 05:52:43;;;;;;;26.20;14.90;;;;;;;11.51;78.00;101273.84;107680;1252;97898;-61
2023/04/16 05:55:11;;;;;;;29.50;14.60;;;;;;;11.54;77.85;101271.53;107681;1251;97820;-61
2023/04/16 05:57:40;;;;;;;20.70;13.30;;;;;;;11.65;77.80;101280.86;107579;1250;112084;-61
2023/04/16 06:00:08;;;;;;;21.00;13.40;;;;;;;11.79;77.59;101274.48;107631;1251;109613;-62
2023/04/16 06:02:40;;;;;;;22.10;13.40;;;;;;;11.93;77.46;101269.01;107645;1255;108738;-61
2023/04/16 06:05:08;;;;;;;24.30;14.30;;;;;;;12.06;77.23;101271.30;107820;1248;97801;-60
2023/04/16 06:07:37;;;;;;;22.90;14.10;;;;;;;12.19;76.81;101274.89;107907;1253;97692;-61
2023/04/16 06:10:09;;;;;;;26.40;13.90;;;;;;;12.29;76.32;101279.40;107903;1248;112273;-61
2023/04/16 06:12:40;;;;;;;21.40;12.60;;;;;;;12.38;76.00;101284.02;107775;1250;110647;-62
2023/04/16 06:15:15;;;;;;;25.80;12.00;;;;;;;12.46;75.56;101287.27;107666;1253;107659;-65
2023/04/16 06:17:49;;;;;;;21.00;11.60;;;;;;;12.53;75.59;101292.77;107915;1248;97937;-63
2023/04/16 06:20:22;;;;;;;18.80;9.60;;;;;;;12.65;75.22;101298.17;107718;1250;97698;-60
2023/04/16 06:22:50;;;;;;;23.90;11.50;;;;;;;12.78;75.28;101301.70;107589;1250;111801;-62
2023/04/16 06:25:19;;;;;;;14.60;9.60;;;;;;;12.95;75.15;101299.80;107585;1254;109566;-61
2023/04/16 06:27:47;;;;;;;17.30;9.90;;;;;;;13.08;74.28;101301.94;107543;1254;108391;-62
2023/04/16 06:30:16;;;;;;;13.90;8.80;;;;;;;13.21;74.10;101302.75;107747;1250;97895;-60
2023/04/16 06:32:45;;;;;;;11.30;8.30;;;;;;;13.33;73.34;101296.91;107982;1251;99507;-62
2023/04/16 06:35:13;;;;;;;15.10;9.30;;;;;;;13.42;73.12;101299.55;107982;1249;111634;-62
2023/04/16 06:37:42;;;;;;;22.30;10.40;;;;;;;13.53;72.67;101296.23;107926;1253;109120;-61
2023/04/16 06:40:11;;;;;;;18.80;10.30;;;;;;;13.62;72.51;101289.04;107908;1252;108247;-61
2023/04/16 06:42:39;;;;;;;15.10;10.30;;;;;;;13.74;72.24;101285.23;107958;1248;97798;-64
2023/04/16 06:45:11;;;;;;;18.90;10.10;;;;;;;13.84;72.17;101278.61;107953;1248;98331;-62
2023/04/16 06:47:39;;;;;;;14.10;10.00;;;;;;;13.97;71.64;101276.65;107955;1248;112299;-61
2023/04/16 06:50:08;;;;;;;20.80;10.80;;;;;;;14.05;71.06;101286.87;107909;1248;108899;-61
2023/04/16 06:52:36;;;;;;;17.80;10.30;;;;;;;14.03;70.27;101295.00;107934;1248;107787;-61
2023/04/16 06:55:08;;;;;;;18.70;10.70;;;;;;;14.04;70.72;101290.71;107925;1248;97962;-60
2023/04/16 06:57:37;;;;;;;17.00;11.30;;;;;;;14.12;70.52;101288.73;107940;1248;97819;-63
2023/04/16 07:00:08;;;;;;;18.90;10.60;;;;;;;14.17;70.19;101283.91;107918;1248;111192;-61
2023/04/16 07:02:36;;;;;;;13.90;8.60;;;;;;;14.25;70.13;101288.06;107931;1248;108876;-62
2023/04/16 07:05:05;;;;;;;13.80;9.60;;;;;;;14.27;69.81;101296.88;107817;1251;108088;-62
2023/04/16 07:07:34;;;;;;;17.10;9.20;;;;;;;14.23;68.98;101298.25;107503;1253;97919;-61
2023/04/16 07:10:04;;;;;;;16.90;9.60;;;;;;;14.19;69.05;101299.05;107535;1250;98450;-61
2023/04/16 07:12:32;;;;;;;15.30;8.60;;;;;;;14.22;69.48;101299.47;107561;1250;111186;-60
2023/04/16 07:15:00;;;;;;;17.30;8.30;;;;;;;14.22;69.12;101301.29;107538;1250;109853;-63
2023/04/16 07:17:29;;;;;;;19.30;8.40;;;;;;;14.22;69.05;101301.42;107526;1250;108487;-60
2023/04/16 07:19:58;;;;;;;17.20;8.40;;;;;;;14.28;69.09;101306.65;107526;1251;97810;-62
2023/04/16 07:22:27;;;;;;;13.10;7.80;;;;;;;14.38;68.77;101302.80;107613;1250;97694;-60
2023/04/16 07:24:55;;;;;;;11.50;7.40;;;;;;;14.50;67.58;101295.77;107539;1250;112539;-60
2023/04/16 07:27:24;;;;;;;13.00;8.70;;;;;;;14.50;67.90;101297.71;107574;1250;110159;-61
2023/04/16 07:29:53;;;;;;;17.30;7.80;;;;;;;14.57;67.65;101293.60;107655;1248;108652;-61
2023/04/16 07:32:22;;;;;;;11.30;7.20;;;;;;;14.65;67.83;101294.66;107908;1248;97809;-61
2023/04/16 07:34:50;;;;;;;18.40;8.20;;;;;;;14.78;67.34;101293.38;107913;1251;97695;-61
2023/04/16 07:37:19;;;;;;;16.30;7.60;;;;;;;14.84;67.40;101294.13;107659;1253;111285;-60
2023/04/16 07:39:48;;;;;;;14.70;8.10;;;;;;;14.92;67.29;101297.81;107734;1248;109929;-62
2023/04/16 07:42:17;;;;;;;14.50;7.90;;;;;;;14.99;66.87;101297.29;107776;1248;108570;-62
2023/04/16 07:44:59;;;;;;;13.40;7.50;;;;;;;15.10;66.92;101298.80;107937;1248;97886;-63
2023/04/16 07:47:27;;;;;;;16.50;8.10;;;;;;;15.15;65.61;101298.64;107906;1248;98314;-62
2023/04/16 07:49:56;;;;;;;15.90;7.70;;;;;;;15.14;65.28;101305.27;107967;1248;111977;-61
2023/04/16 07:52:25;;;;;;;12.80;7.40;;;;;;;15.18;65.65;101300.14;107943;1248;109749;-61
2023/04/16 07:54:54;;;;;;;13.50;7.00;;;;;;;15.29;65.48;101299.92;107934;1253;107963;-61
2023/04/16 07:57:22;;;;;;;20.90;8.20;;;;;;;15.45;65.57;101303.19;107895;1252;97828;-62
2023/04/16 07:59:50;;;;;;;15.30;7.80;;;;;;;15.66;65.13;101303.08;107204;1248;983197;-62
2023/04/16 08:02:19;;;;;;;12.20;8.00;;;;;;;15.80;64.47;101302.08;107991;1253;112611;-64
2023/04/16 08:04:48;;;;;;;18.40;8.30;;;;;;;15.81;63.89;101305.54;107724;1248;108544;-65
2023/04/16 08:07:17;;;;;;;13.20;9.20;;;;;;;15.84;63.61;101309.27;107790;1248;108543;-63
2023/04/16 08:09:50;;;;;;;11.00;9.00;;;;;;;15.92;63.67;101310.20;107911;1248;97817;-61
2023/04/16 08:12:19;;;;;;;;;;;;;;;16.12;63.60;101305.16;107715;1250;97704;-62
2023/04/16 08:14:48;;;;;;;13.30;7.00;;;;;;;16.36;63.16;101299.88;107519;1251;111381;-62
2023/04/16 08:17:16;;;;;;;17.30;9.40;;;;;;;16.58;62.67;101299.41;107911;1248;110147;-61
2023/04/16 08:19:45;;;;;;;15.70;9.90;;;;;;;16.77;61.89;101301.98;107918;1248;107758;-61
2023/04/16 08:22:14;;;;;;;13.30;8.40;;;;;;;16.92;61.28;101296.77;107898;1248;97830;-61
2023/04/16 08:24:42;;;;;;;11.60;7.50;;;;;;;16.98;60.75;101297.44;107773;1248;97700;-61
2023/04/16 08:27:11;;;;;;;11.00;6.30;;;;;;;16.99;60.11;101297.14;107939;1248;112277;-62
2023/04/16 08:29:47;;;;;;;13.10;7.30;;;;;;;16.95;60.03;101299.40;107812;1253;109656;-60
2023/04/16 08:32:16;;;;;;;10.10;6.80;;;;;;;16.97;60.23;101297.00;107598;1250;108697;-61
2023/04/16 08:34:44;;;;;;;12.10;6.80;;;;;;;17.14;60.10;101301.12;107592;1250;97871;-61
2023/04/16 08:37:12;;;;;;;12.40;7.50;;;;;;;17.34;59.57;101301.33;107586;1250;97941;-61
2023/04/16 08:39:41;;;;;;;14.00;7.60;;;;;;;17.40;59.28;101303.54;107594;1250;112008;-63
2023/04/16 08:42:35;;;;;;;12.40;6.60;;;;;;;17.47;58.39;101302.80;107523;1250;109981;-62
2023/04/16 08:45:14;;;;;;;10.90;6.70;;;;;;;17.59;58.43;101300.98;107568;1250;109095;-61
2023/04/16 08:47:49;;;;;;;10.10;6.20;;;;;;;17.62;58.47;101304.42;107696;1253;97823;-63
2023/04/16 08:50:25;;;;;;;14.00;7.50;;;;;;;17.74;58.38;101303.10;107683;1252;97900;-62
2023/04/16 08:53:05;;;;;;;9.20;6.40;;;;;;;17.77;58.19;101304.06;107579;1250;111863;-61
2023/04/16 08:55:49;;;;;;;13.30;7.10;;;;;;;17.81;58.08;101308.52;107708;1254;108652;-62
2023/04/16 08:58:19;;;;;;;25.60;7.50;;;;;;;17.78;57.80;101309.07;107656;1251;107815;-61
2023/04/16 09:00:49;;;;;;;9.30;6.80;;;;;;;17.77;57.89;101309.33;107661;1256;97801;-62
2023/04/16 09:03:20;;;;;;;15.00;8.20;;;;;;;17.93;57.60;101312.06;107602;1250;98368;-61
2023/04/16 09:05:50;;;;;;;15.50;7.00;;;;;;;18.12;57.10;101316.48;107605;1250;110959;-62
2023/04/16 09:08:20;;;;;;;21.80;13.10;;;;;;;18.36;56.96;101319.08;107563;1250;110091;-60
2023/04/16 09:10:49;;;;;;;11.60;6.60;;;;;;;18.53;56.24;101317.19;107535;1253;107198;-62
2023/04/16 09:13:19;;;;;;;13.70;6.30;;;;;;;18.57;56.01;101310.73;107580;1250;97880;-61
2023/04/16 09:15:51;;;;;;;13.10;6.80;;;;;;;18.53;55.48;101311.91;107674;1250;97693;-62
2023/04/16 09:18:20;;;;;;;10.60;6.20;;;;;;;18.47;56.13;101318.60;107595;1250;112418;-62
2023/04/16 09:20:50;;;;;;;12.10;7.20;;;;;;;18.45;56.01;101322.39;107622;1250;111004;-64
2023/04/16 09:23:19;;;;;;;10.50;6.00;;;;;;;18.35;55.59;101321.59;107626;1250;108619;-62
2023/04/16 09:25:47;;;;;;;8.60;5.60;;;;;;;18.25;54.79;101323.23;107522;1250;97710;-62
2023/04/16 09:28:43;;;;;;;8.10;6.00;;;;;;;18.12;55.04;101326.52;107596;1250;97819;-61
2023/04/16 09:31:17;;;;;;;9.40;5.80;;;;;;;18.10;55.11;101331.59;107876;1250;112208;-62
2023/04/16 09:34:06;;;;;;;13.80;6.20;;;;;;;18.09;55.00;101335.40;107911;1249;109980;-61
2023/04/16 09:36:35;;;;;;;15.70;6.40;;;;;;;17.91;55.24;101335.94;107711;1248;108206;-61
2023/04/16 09:39:04;;;;;;;11.00;6.80;;;;;;;17.74;55.99;101339.54;107948;1249;97797;-62
2023/04/16 09:41:34;;;;;;;11.90;6.40;;;;;;;17.56;56.29;101343.52;107792;1251;97701;-62
2023/04/16 09:44:04;;;;;;;9.80;6.80;;;;;;;17.35;56.78;101343.27;107673;1253;111361;-61
2023/04/16 09:46:34;;;;;;;12.00;7.40;;;;;;;17.09;57.40;101349.09;107692;1250;108976;-63
2023/04/16 09:49:13;;;;;;;8.60;6.20;;;;;;;16.92;57.88;101354.35;107593;1250;109252;-61
2023/04/16 09:51:48;;;;;;;12.40;6.40;;;;;;;16.81;58.06;101356.25;107596;1250;97838;-61
2023/04/16 09:54:19;;;;;;;13.40;5.60;;;;;;;16.64;58.58;101347.89;107576;1250;97817;-60
2023/04/16 09:56:47;;;;;;;12.50;4.90;;;;;;;16.66;58.93;101347.16;107542;1250;111246;-60
2023/04/16 09:59:20;;;;;;;8.20;4.90;;;;;;;16.81;58.82;101341.35;107554;1250;109817;-59
2023/04/16 10:01:49;;;;;;;6.90;4.50;;;;;;;16.98;58.57;101339.23;107535;1254;107486;-61
2023/04/16 10:04:19;;;;;;;6.40;4.50;;;;;;;17.17;58.22;101333.75;107513;1250;97812;-61
2023/04/16 10:07:06;;;;;;;7.10;3.80;;;;;;;17.59;57.47;101326.43;107534;1250;97817;-60
2023/04/16 10:09:38;;;;;;;5.90;3.90;;;;;;;18.21;56.81;101324.77;107587;1250;111649;-63
2023/04/16 10:12:07;;;;;;;4.90;3.70;;;;;;;18.67;54.20;101328.69;107542;1250;109924;-61
2023/04/16 10:14:36;;;;;;;6.20;4.10;;;;;;;18.62;53.69;101336.38;107556;1250;108366;-61
2023/04/16 10:17:05;;;;;;;8.50;3.50;;;;;;;18.59;52.93;101340.89;107814;1248;97823;-61
2023/04/16 10:19:34;;;;;;;9.10;4.30;;;;;;;18.86;52.98;101335.42;107936;1248;98425;-62
2023/04/16 10:22:03;;;;;;;5.10;3.70;;;;;;;19.68;51.59;101335.91;107953;1248;112162;-60
2023/04/16 10:24:33;;;;;;;6.60;3.80;;;;;;;19.87;51.09;101338.84;107979;1248;109127;-61
2023/04/16 10:27:01;;;;;;;4.10;3.20;;;;;;;19.85;49.95;101343.59;107738;1249;108428;-62
2023/04/16 10:29:31;;;;;;;7.10;3.40;;;;;;;19.86;50.51;101336.39;107836;1253;97868;-60
2023/04/16 10:32:00;;;;;;;10.30;4.30;;;;;;;19.94;49.97;101330.80;107611;1250;98330;-61
2023/04/16 10:34:30;;;;;;;5.70;3.70;;;;;;;19.99;49.44;101329.56;107620;1250;110988;-60
2023/04/16 10:36:58;;;;;;;5.00;3.50;;;;;;;20.07;48.99;101332.33;107558;1250;109857;-59
2023/04/16 10:39:28;;;;;;;6.90;3.50;;;;;;;19.91;49.21;101345.98;107518;1250;107956;-61
2023/04/16 10:42:10;;;;;;;4.40;3.20;;;;;;;19.61;49.53;101347.27;107617;1250;97713;-60
2023/04/16 10:44:40;;;;;;;8.60;3.80;;;;;;;19.13;50.14;101352.18;107568;1254;97815;-61
2023/04/16 10:47:14;;;;;;;8.00;3.60;;;;;;;18.72;50.99;101355.36;107736;1248;111787;-62
2023/04/16 10:49:42;;;;;;;4.20;3.70;;;;;;;18.37;51.88;101356.73;107974;1252;108071;-61
2023/04/16 10:52:15;;;;;;;9.00;3.90;;;;;;;18.00;52.46;101355.79;107710;1256;107715;-61
2023/04/16 10:54:47;;;;;;;7.60;4.10;;;;;;;17.75;53.26;101357.05;107794;1251;97886;-61
2023/04/16 10:57:18;;;;;;;6.50;4.50;;;;;;;17.49;54.13;101348.30;107981;1253;97720;-61
2023/04/16 10:59:48;;;;;;;6.00;4.20;;;;;;;17.25;54.94;101352.46;107958;1249;112019;-61
2023/04/16 11:02:17;;;;;;;5.70;3.90;;;;;;;17.12;55.12;101349.14;107975;1248;109611;-62
2023/04/16 11:04:48;;;;;;;9.30;5.80;;;;;;;17.10;55.63;101352.48;107926;1249;108831;-60
2023/04/16 11:07:19;;;;;;;9.50;5.50;;;;;;;16.98;56.17;101353.77;107707;1249;97944;-61
2023/04/16 11:09:55;;;;;;;6.10;4.90;;;;;;;16.81;56.81;101355.30;107971;1251;98310;-61
2023/04/16 11:12:38;;;;;;;11.30;5.90;;;;;;;16.66;56.94;101355.20;107859;1250;112587;-61
2023/04/16 11:15:10;;;;;;;11.00;5.90;;;;;;;16.54;57.51;101352.39;107718;1248;109464;-62
2023/04/16 11:17:49;;;;;;;12.40;7.20;;;;;;;16.53;57.84;101354.13;107932;1249;108132;-62
2023/04/16 11:20:22;;;;;;;11.50;6.90;;;;;;;16.55;57.93;101345.74;107926;1249;97907;-60
2023/04/16 11:22:55;;;;;;;15.40;6.70;;;;;;;16.58;57.86;101343.89;107643;1250;97983;-61